createdAt,value
2018-08-06T00:00:39.086Z,13.73
2018-08-06T00:03:09.713Z,14.67
2018-08-06T00:05:39.574Z,14.87
2018-08-06T00:08:09.668Z,13.63
2018-08-06T00:10:39.646Z,14.40
2018-08-06T00:13:09.747Z,14.03
2018-08-06T00:15:39.366Z,13.53
2018-08-06T00:18:09.226Z,14.17
2018-08-06T00:20:39.044Z,14.27
2018-08-06T00:23:08.843Z,13.90
2018-08-06T00:25:38.564Z,15.63
2018-08-06T00:28:08.363Z,15.40
2018-08-06T00:30:38.443Z,14.37
2018-08-06T00:33:08.204Z,14.77
2018-08-06T00:35:42.643Z,15.10
2018-08-06T00:38:17.063Z,14.57
2018-08-06T00:40:47.323Z,14.23
2018-08-06T00:43:17.143Z,14.43
2018-08-06T00:45:46.903Z,14.13
2018-08-06T00:48:16.683Z,14.33
2018-08-06T00:50:46.763Z,14.90
2018-08-06T00:53:16.484Z,13.60
2018-08-06T00:55:46.606Z,15.13
2018-08-06T00:58:16.324Z,13.87
2018-08-06T01:00:46.000Z,14.20
2018-08-06T01:03:15.780Z,14.27
2018-08-06T01:05:45.567Z,13.70
2018-08-06T01:08:15.400Z,13.17
2018-08-06T01:10:45.440Z,12.87
2018-08-06T01:13:15.240Z,13.63
2018-08-06T01:15:45.160Z,13.00
2018-08-06T01:18:15.360Z,12.97
2018-08-06T01:20:45.141Z,13.17
2018-08-06T01:23:14.980Z,13.87
2018-08-06T01:25:45.040Z,13.23
2018-08-06T01:28:19.181Z,13.17
2018-08-06T01:30:49.021Z,13.80
2018-08-06T01:33:19.421Z,13.03
2018-08-06T01:35:49.501Z,12.90
2018-08-06T01:38:19.243Z,13.03
2018-08-06T01:40:49.001Z,12.80
2018-08-06T01:43:19.101Z,13.87
2018-08-06T01:45:53.379Z,13.60
2018-08-06T01:48:23.781Z,14.27
2018-08-06T01:50:53.841Z,14.07
2018-08-06T01:53:24.241Z,13.87
2018-08-06T01:55:54.921Z,14.93
2018-08-06T01:58:24.641Z,15.43
2018-08-06T02:00:54.980Z,16.37
2018-08-06T02:03:24.859Z,15.43
2018-08-06T02:05:54.639Z,17.60
2018-08-06T02:08:24.339Z,16.87
2018-08-06T02:10:54.439Z,16.40
2018-08-06T02:13:24.198Z,17.13
2018-08-06T02:15:53.939Z,16.53
2018-08-06T02:18:29.119Z,16.63
2018-08-06T02:20:58.918Z,15.53
2018-08-06T02:23:29.539Z,15.80
2018-08-06T02:25:59.419Z,15.20
2018-08-06T02:28:29.219Z,15.67
2018-08-06T02:30:59.179Z,14.47
2018-08-06T02:33:29.119Z,16.97
2018-08-06T02:35:59.079Z,15.40
2018-08-06T02:38:29.219Z,16.10
2018-08-06T02:40:59.006Z,16.47
2018-08-06T02:43:28.778Z,15.53
2018-08-06T02:45:58.586Z,15.63
2018-08-06T02:48:28.340Z,15.73
2018-08-06T02:50:58.279Z,15.60
2018-08-06T02:53:28.259Z,15.87
2018-08-06T02:55:58.240Z,15.63
2018-08-06T02:58:28.079Z,15.33
2018-08-06T03:00:57.959Z,15.43
2018-08-06T03:03:28.039Z,14.90
2018-08-06T03:08:32.679Z,14.10
2018-08-06T03:11:02.499Z,14.30
2018-08-06T03:13:32.239Z,15.53
2018-08-06T03:16:02.579Z,16.53
2018-08-06T03:18:32.659Z,15.20
2018-08-06T03:21:02.479Z,16.93
2018-08-06T03:23:32.782Z,17.43
2018-08-06T03:26:02.599Z,17.50
2018-08-06T03:28:36.399Z,17.47
2018-08-06T03:31:06.283Z,16.40
2018-08-06T03:33:36.359Z,16.33
2018-08-06T03:36:06.399Z,18.80
2018-08-06T03:38:36.179Z,18.17
2018-08-06T03:41:06.119Z,18.53
2018-08-06T03:43:36.039Z,20.40
2018-08-06T03:46:05.939Z,19.30
2018-08-06T03:48:35.682Z,19.03
2018-08-06T03:51:05.678Z,19.37
2018-08-06T03:53:35.399Z,18.60
2018-08-06T03:56:05.799Z,18.80
2018-08-06T03:58:35.519Z,19.13
2018-08-06T04:01:05.684Z,16.83
2018-08-06T04:03:36.026Z,17.83
2018-08-06T04:06:05.905Z,17.73
2018-08-06T04:08:35.685Z,17.67
2018-08-06T04:11:05.886Z,16.37
2018-08-06T04:13:40.226Z,16.90
2018-08-06T04:16:10.267Z,16.43
2018-08-06T04:18:40.102Z,17.10
2018-08-06T04:21:09.822Z,15.53
2018-08-06T04:23:39.606Z,16.17
2018-08-06T04:26:09.342Z,15.27
2018-08-06T04:28:39.202Z,15.37
2018-08-06T04:31:09.163Z,16.07
2018-08-06T04:33:38.923Z,15.57
2018-08-06T04:36:08.662Z,14.37
2018-08-06T04:38:38.561Z,14.47
2018-08-06T04:41:12.862Z,14.13
2018-08-06T04:43:42.722Z,14.23
2018-08-06T04:46:12.504Z,15.93
2018-08-06T04:48:42.262Z,14.93
2018-08-06T04:51:12.183Z,14.83
2018-08-06T04:53:42.003Z,15.43
2018-08-06T04:56:11.907Z,14.43
2018-08-06T04:58:41.962Z,14.67
2018-08-06T05:01:16.001Z,14.87
2018-08-06T05:03:45.921Z,14.80
2018-08-06T05:06:16.061Z,15.73
2018-08-06T05:08:46.141Z,15.20
2018-08-06T05:11:15.981Z,16.07
2018-08-06T05:13:46.825Z,16.27
2018-08-06T05:16:16.460Z,15.90
2018-08-06T05:18:46.443Z,16.97
2018-08-06T05:21:16.206Z,17.73
2018-08-06T05:23:59.368Z,16.40
2018-08-06T05:26:30.081Z,16.13
2018-08-06T05:28:59.881Z,16.43
2018-08-06T05:31:30.201Z,16.77
2018-08-06T05:34:00.341Z,16.73
2018-08-06T05:36:30.120Z,17.23
2018-08-06T05:39:00.120Z,17.97
2018-08-06T05:41:30.280Z,16.70
2018-08-06T05:44:00.061Z,18.07
2018-08-06T05:46:30.202Z,16.47
2018-08-06T05:49:00.000Z,15.93
2018-08-06T05:51:30.280Z,15.97
2018-08-06T05:54:00.002Z,17.50
2018-08-06T05:56:29.800Z,16.20
2018-08-06T05:59:00.201Z,16.07
2018-08-06T06:01:30.162Z,16.10
2018-08-06T06:04:00.143Z,15.90
2018-08-06T06:06:29.801Z,16.63
2018-08-06T06:08:59.544Z,15.97
2018-08-06T06:11:29.169Z,15.70
2018-08-06T06:13:58.502Z,14.50
2018-08-06T06:16:27.823Z,15.20
2018-08-06T06:18:57.207Z,15.50
2018-08-06T06:21:26.632Z,15.37
2018-08-06T06:23:56.029Z,14.13
2018-08-06T06:26:25.400Z,14.43
2018-08-06T06:28:54.683Z,14.50
2018-08-06T06:31:24.785Z,15.35
2018-08-06T06:33:54.987Z,14.75
2018-08-06T06:36:24.662Z,15.68
2018-08-06T06:38:54.383Z,15.28
2018-08-06T06:41:24.226Z,14.38
2018-08-06T06:43:53.985Z,14.80
2018-08-06T06:46:23.721Z,13.78
2018-08-06T06:48:53.526Z,14.23
2018-08-06T06:51:23.721Z,15.20
2018-08-06T06:53:53.602Z,14.83
2018-08-06T06:56:23.341Z,13.65
2018-08-06T06:58:53.141Z,14.95
2018-08-06T07:01:22.761Z,14.05
2018-08-06T07:03:52.361Z,15.28
2018-08-06T07:06:22.212Z,15.23
2018-08-06T07:08:52.521Z,13.83
2018-08-06T07:11:22.501Z,14.98
2018-08-06T07:13:52.253Z,15.40
2018-08-06T07:16:22.035Z,15.40
2018-08-06T07:18:51.844Z,14.68
2018-08-06T07:21:21.522Z,15.98
2018-08-06T07:23:51.481Z,14.87
2018-08-06T07:26:21.141Z,14.25
2018-08-06T07:28:50.888Z,14.83
2018-08-06T07:31:20.602Z,14.53
2018-08-06T07:33:50.521Z,13.03
2018-08-06T07:36:20.242Z,14.70
2018-08-06T07:38:49.981Z,15.23
2018-08-06T07:41:20.501Z,14.95
2018-08-06T07:43:50.261Z,14.60
2018-08-06T07:46:20.224Z,14.58
2018-08-06T07:48:49.940Z,14.55
2018-08-06T07:51:19.699Z,14.70
2018-08-06T07:53:49.379Z,15.20
2018-08-06T07:56:19.401Z,14.55
2018-08-06T07:58:49.222Z,14.80
2018-08-06T08:01:18.941Z,14.68
2018-08-06T08:03:48.482Z,15.72
2018-08-06T08:06:18.154Z,14.75
2018-08-06T08:08:48.022Z,14.95
2018-08-06T08:11:17.662Z,14.15
2018-08-06T08:13:47.820Z,14.78
2018-08-06T08:16:19.206Z,16.55
2018-08-06T08:18:48.898Z,14.28
2018-08-06T08:21:18.719Z,14.78
2018-08-06T08:23:48.519Z,14.70
2018-08-06T08:26:18.319Z,14.33
2018-08-06T08:28:48.121Z,14.53
2018-08-06T08:31:17.859Z,14.93
2018-08-06T08:33:47.901Z,15.50
2018-08-06T08:36:17.520Z,15.65
2018-08-06T08:38:47.358Z,14.25
2018-08-06T08:41:17.219Z,13.98
2018-08-06T08:43:46.979Z,13.38
2018-08-06T08:46:16.899Z,14.50
2018-08-06T08:48:46.719Z,14.85
2018-08-06T08:51:16.500Z,15.95
2018-08-06T08:53:46.679Z,14.98
2018-08-06T08:56:16.679Z,14.35
2018-08-06T08:58:46.521Z,14.70
2018-08-06T09:01:16.262Z,14.58
2018-08-06T09:03:46.022Z,15.08
2018-08-06T09:06:16.001Z,14.30
2018-08-06T09:08:45.823Z,15.10
2018-08-06T09:11:16.522Z,14.55
2018-08-06T09:13:46.402Z,15.03
2018-08-06T09:16:16.241Z,14.05
2018-08-06T09:18:46.142Z,14.53
2018-08-06T09:21:16.390Z,14.43
2018-08-06T09:23:46.281Z,14.20
2018-08-06T09:26:16.003Z,13.88
2018-08-06T09:28:45.801Z,15.03
2018-08-06T09:31:15.621Z,15.10
2018-08-06T09:33:45.321Z,14.03
2018-08-06T09:36:15.081Z,13.43
2018-08-06T09:38:44.841Z,14.07
2018-08-06T09:41:15.121Z,13.32
2018-08-06T09:43:45.001Z,14.40
2018-08-06T09:46:14.801Z,13.35
2018-08-06T09:48:44.564Z,13.28
2018-08-06T09:51:14.281Z,15.35
2018-08-06T09:53:44.043Z,13.18
2018-08-06T09:56:13.841Z,14.13
2018-08-06T09:58:43.481Z,13.95
2018-08-06T10:01:18.663Z,14.23
2018-08-06T10:03:48.523Z,14.13
2018-08-06T10:06:18.425Z,13.65
2018-08-06T10:08:48.423Z,14.40
2018-08-06T10:11:18.182Z,13.80
2018-08-06T10:13:48.166Z,13.68
2018-08-06T10:16:17.945Z,12.80
2018-08-06T10:18:47.805Z,13.25
2018-08-06T10:21:17.523Z,14.43
2018-08-06T10:23:47.604Z,13.68
2018-08-06T10:26:17.362Z,13.35
2018-08-06T10:28:47.063Z,14.53
2018-08-06T10:31:16.843Z,13.22
2018-08-06T10:33:46.584Z,13.98
2018-08-06T10:36:16.363Z,15.40
2018-08-06T10:38:46.103Z,14.18
2018-08-06T10:41:17.824Z,14.25
2018-08-06T10:43:47.601Z,14.13
2018-08-06T10:46:17.441Z,14.53
2018-08-06T10:48:47.921Z,13.45
2018-08-06T10:51:17.722Z,12.95
2018-08-06T10:53:47.552Z,13.83
2018-08-06T10:56:17.641Z,13.78
2018-08-06T10:58:47.541Z,13.85
2018-08-06T11:01:18.081Z,13.35
2018-08-06T11:03:48.701Z,12.20
2018-08-06T11:06:18.483Z,13.00
2018-08-06T11:08:48.437Z,13.80
2018-08-06T11:11:18.125Z,13.15
2018-08-06T11:13:48.461Z,14.63
2018-08-06T11:16:18.181Z,14.68
2018-08-06T11:18:48.022Z,13.65
2018-08-06T11:21:17.941Z,13.13
2018-08-06T11:23:47.702Z,13.83
2018-08-06T11:26:17.686Z,14.30
2018-08-06T11:28:48.262Z,14.40
2018-08-06T11:31:18.120Z,13.90
2018-08-06T11:33:47.900Z,13.55
2018-08-06T11:36:17.661Z,13.10
2018-08-06T11:38:47.400Z,14.83
2018-08-06T11:41:17.140Z,14.40
2018-08-06T11:43:46.924Z,13.40
2018-08-06T11:46:16.683Z,13.30
2018-08-06T11:48:46.461Z,13.62
2018-08-06T11:51:16.560Z,14.63
2018-08-06T11:53:46.340Z,14.68
2018-08-06T11:56:16.962Z,14.28
2018-08-06T11:58:47.001Z,13.70
2018-08-06T12:01:16.741Z,13.65
2018-08-06T12:03:46.541Z,13.08
2018-08-06T12:06:16.321Z,14.13
2018-08-06T12:08:48.224Z,14.07
2018-08-06T12:11:18.062Z,13.43
2018-08-06T12:13:47.787Z,13.83
2018-08-06T12:16:17.682Z,13.85
2018-08-06T12:18:47.381Z,13.88
2018-08-06T12:21:17.221Z,13.35
2018-08-06T12:23:46.901Z,13.75
2018-08-06T12:26:19.438Z,13.58
2018-08-06T12:28:49.101Z,13.30
2018-08-06T12:31:19.402Z,13.43
2018-08-06T12:33:53.121Z,14.63
2018-08-06T12:36:22.782Z,13.80
2018-08-06T12:39:04.062Z,13.25
2018-08-06T12:41:33.801Z,13.70
2018-08-06T12:44:03.681Z,14.05
2018-08-06T12:46:33.701Z,12.63
2018-08-06T12:49:03.341Z,14.53
2018-08-06T12:51:33.166Z,14.05
2018-08-06T12:54:02.981Z,14.05
2018-08-06T12:56:34.643Z,13.85
2018-08-06T12:59:04.482Z,13.15
2018-08-06T13:01:34.240Z,13.18
2018-08-06T13:04:04.079Z,12.63
2018-08-06T13:06:33.795Z,13.28
2018-08-06T13:09:04.321Z,13.08
2018-08-06T13:11:34.106Z,12.73
2018-08-06T13:14:04.321Z,12.47
2018-08-06T13:16:34.461Z,13.83
2018-08-06T13:19:04.706Z,12.05
2018-08-06T13:21:34.482Z,11.45
2018-08-06T13:24:04.542Z,13.00
2018-08-06T13:26:34.582Z,14.23
2018-08-06T13:29:04.440Z,14.23
2018-08-06T13:31:34.440Z,12.35
2018-08-06T13:34:04.180Z,13.32
2018-08-06T13:36:33.963Z,13.18
2018-08-06T13:39:04.359Z,12.90
2018-08-06T13:41:34.239Z,12.50
2018-08-06T13:44:04.200Z,12.25
2018-08-06T13:46:34.352Z,13.20
2018-08-06T13:49:04.417Z,12.25
2018-08-06T13:51:34.466Z,13.32
2018-08-06T13:54:04.481Z,12.75
2018-08-06T13:56:34.306Z,12.03
2018-08-06T13:59:04.053Z,12.80
2018-08-06T14:01:34.406Z,12.30
2018-08-06T14:04:04.299Z,13.15
2018-08-06T14:06:34.399Z,12.78
2018-08-06T14:09:04.935Z,11.93
2018-08-06T14:11:34.581Z,12.70
2018-08-06T14:14:04.541Z,12.43
2018-08-06T14:16:34.382Z,12.90
2018-08-06T14:19:04.741Z,12.90
2018-08-06T14:21:34.661Z,11.12
2018-08-06T14:24:05.542Z,11.85
2018-08-06T14:26:35.281Z,12.73
2018-08-06T14:29:05.284Z,12.28
2018-08-06T14:31:35.160Z,13.15
2018-08-06T14:34:05.064Z,12.15
2018-08-06T14:36:34.904Z,13.35
2018-08-06T14:39:06.902Z,11.93
2018-08-06T14:41:36.662Z,12.63
2018-08-06T14:44:08.817Z,11.73
2018-08-06T14:46:39.728Z,11.75
2018-08-06T14:49:09.793Z,11.57
2018-08-06T14:51:39.588Z,11.93
2018-08-06T14:54:09.302Z,12.10
2018-08-06T14:56:39.100Z,12.10
2018-08-06T14:59:08.825Z,13.22
2018-08-06T15:01:38.862Z,12.43
2018-08-06T15:04:09.003Z,12.45
2018-08-06T15:06:38.696Z,12.95
2018-08-06T15:09:13.424Z,12.60
2018-08-06T15:11:44.410Z,12.78
2018-08-06T15:14:14.248Z,13.18
2018-08-06T15:16:44.223Z,13.28
2018-08-06T15:19:14.080Z,13.75
2018-08-06T15:21:43.959Z,13.40
2018-08-06T15:24:13.766Z,13.18
2018-08-06T15:26:43.568Z,12.90
2018-08-06T15:29:13.643Z,13.05
2018-08-06T15:31:43.403Z,12.78
2018-08-06T15:34:13.582Z,12.75
2018-08-06T15:36:43.242Z,12.90
2018-08-06T15:39:16.203Z,12.23
2018-08-06T15:41:46.604Z,12.80
2018-08-06T15:44:16.522Z,12.73
2018-08-06T15:46:46.403Z,12.98
2018-08-06T15:49:16.199Z,12.85
2018-08-06T15:51:45.999Z,13.18
2018-08-06T15:54:16.400Z,12.73
2018-08-06T15:56:46.239Z,12.93
2018-08-06T15:59:16.383Z,12.93
2018-08-06T16:01:46.666Z,13.13
2018-08-06T16:04:16.446Z,13.15
2018-08-06T16:06:46.127Z,13.25
2018-08-06T16:09:15.886Z,12.43
2018-08-06T16:11:45.986Z,12.45
2018-08-06T16:14:19.750Z,13.43
2018-08-06T16:16:49.626Z,12.98
2018-08-06T16:19:19.749Z,12.80
2018-08-06T16:21:50.341Z,13.20
2018-08-06T16:24:19.940Z,13.08
2018-08-06T16:26:50.300Z,12.85
2018-08-06T16:29:20.041Z,13.30
2018-08-06T16:31:49.782Z,13.08
2018-08-06T16:34:19.545Z,14.30
2018-08-06T16:36:49.281Z,13.68
2018-08-06T16:39:19.099Z,13.93
2018-08-06T16:41:48.839Z,13.88
2018-08-06T16:44:18.839Z,14.30
2018-08-06T16:46:48.734Z,13.70
2018-08-06T16:49:18.654Z,13.58
2018-08-06T16:51:48.479Z,14.30
2018-08-06T16:54:18.580Z,14.75
2018-08-06T16:56:48.559Z,14.13
2018-08-06T16:59:22.879Z,15.48
2018-08-06T17:01:52.745Z,14.50
2018-08-06T17:04:22.531Z,13.68
2018-08-06T17:06:52.262Z,15.00
2018-08-06T17:09:22.052Z,14.55
2018-08-06T17:11:51.907Z,14.15
2018-08-06T17:14:21.764Z,14.35
2018-08-06T17:16:55.761Z,14.25
2018-08-06T17:19:26.001Z,14.28
2018-08-06T17:21:55.922Z,14.40
2018-08-06T17:24:25.701Z,14.78
2018-08-06T17:26:55.381Z,14.23
2018-08-06T17:29:25.545Z,15.15
2018-08-06T17:31:55.502Z,14.45
2018-08-06T17:34:25.221Z,14.50
2018-08-06T17:36:58.941Z,14.43
2018-08-06T17:39:28.627Z,15.23
2018-08-06T17:41:58.261Z,14.68
2018-08-06T17:44:27.921Z,14.60
2018-08-06T17:46:57.581Z,14.47
2018-08-06T17:49:27.369Z,14.90
2018-08-06T17:51:57.180Z,14.33
2018-08-06T17:54:31.242Z,15.68
2018-08-06T17:57:05.260Z,15.15
2018-08-06T17:59:35.014Z,15.15
2018-08-06T18:02:04.721Z,15.60
2018-08-06T18:04:35.087Z,15.35
2018-08-06T18:07:05.480Z,14.60
2018-08-06T18:09:35.400Z,14.25
2018-08-06T18:12:05.502Z,14.80
2018-08-06T18:14:35.281Z,15.80
2018-08-06T18:17:09.401Z,15.05
2018-08-06T18:19:39.261Z,15.68
2018-08-06T18:22:09.124Z,14.90
2018-08-06T18:24:39.121Z,16.23
2018-08-06T18:27:08.900Z,16.20
2018-08-06T18:29:42.821Z,15.70
2018-08-06T18:32:13.183Z,16.07
2018-08-06T18:34:43.243Z,16.02
2018-08-06T18:37:13.141Z,16.20
2018-08-06T18:39:43.104Z,15.80
2018-08-06T18:42:13.310Z,16.45
2018-08-06T18:44:43.249Z,16.20
2018-08-06T18:47:13.062Z,15.83
2018-08-06T18:49:42.761Z,16.10
2018-08-06T18:52:12.929Z,15.40
2018-08-06T18:54:42.843Z,15.63
2018-08-06T18:57:12.662Z,17.45
2018-08-06T18:59:42.501Z,15.95
2018-08-06T19:02:12.867Z,17.02
2018-08-06T19:04:42.806Z,16.67
2018-08-06T19:07:12.725Z,16.05
2018-08-06T19:09:42.505Z,17.55
2018-08-06T19:12:17.350Z,16.80
2018-08-06T19:14:47.426Z,16.27
2018-08-06T19:17:17.246Z,16.37
2018-08-06T19:19:47.393Z,16.20
2018-08-06T19:22:17.670Z,16.62
2018-08-06T19:24:52.326Z,16.05
2018-08-06T19:27:22.507Z,16.15
2018-08-06T19:29:54.406Z,16.85
2018-08-06T19:32:25.023Z,16.97
2018-08-06T19:34:55.053Z,16.20
2018-08-06T19:37:30.362Z,16.97
2018-08-06T19:40:00.124Z,17.30
2018-08-06T19:42:34.382Z,17.17
2018-08-06T19:45:04.042Z,16.60
2018-08-06T19:47:34.477Z,17.30
2018-08-06T19:50:09.478Z,16.65
2018-08-06T19:52:39.367Z,17.07
2018-08-06T19:55:14.402Z,16.70
2018-08-06T19:57:44.068Z,18.33
2018-08-06T20:00:15.279Z,18.10
2018-08-06T20:02:45.460Z,16.93
2018-08-06T20:05:15.267Z,16.95
2018-08-06T20:07:45.069Z,17.60
2018-08-06T20:10:16.142Z,17.98
2018-08-06T20:12:46.083Z,17.23
2018-08-06T20:15:20.151Z,17.20
2018-08-06T20:17:50.855Z,16.10
2018-08-06T20:20:20.459Z,16.63
2018-08-06T20:22:50.179Z,17.82
2018-08-06T20:25:20.919Z,17.47
2018-08-06T20:27:51.139Z,16.60
2018-08-06T20:30:22.281Z,17.02
2018-08-06T20:32:51.985Z,17.50
2018-08-06T20:35:21.856Z,16.90
2018-08-06T20:37:51.439Z,17.37
2018-08-06T20:40:21.158Z,17.50
2018-08-06T20:42:50.801Z,16.90
2018-08-06T20:45:21.513Z,17.23
2018-08-06T20:47:51.485Z,17.80
2018-08-06T20:50:23.022Z,18.50
2018-08-06T20:52:53.848Z,17.80
2018-08-06T20:55:23.830Z,17.25
2018-08-06T20:57:53.432Z,17.20
2018-08-06T21:00:27.823Z,17.33
2018-08-06T21:02:58.324Z,17.23
2018-08-06T21:05:28.287Z,16.67
2018-08-06T21:07:58.447Z,18.00
2018-08-06T21:10:30.199Z,17.43
2018-08-06T21:13:00.002Z,18.30
2018-08-06T21:15:29.999Z,16.83
2018-08-06T21:17:59.839Z,17.17
2018-08-06T21:20:29.678Z,18.77
2018-08-06T21:22:59.543Z,17.67
2018-08-06T21:25:29.320Z,19.03
2018-08-06T21:27:59.078Z,18.30
2018-08-06T21:30:29.158Z,18.93
2018-08-06T21:32:59.118Z,17.83
2018-08-06T21:35:29.662Z,17.87
2018-08-06T21:37:59.659Z,18.20
2018-08-06T21:40:29.441Z,18.73
2018-08-06T21:42:59.260Z,18.00
2018-08-06T21:45:33.480Z,19.17
2018-08-06T21:48:03.360Z,17.70
2018-08-06T21:50:33.477Z,18.83
2018-08-06T21:53:03.459Z,18.43
2018-08-06T21:55:33.458Z,19.30
2018-08-06T21:58:03.259Z,18.87
2018-08-06T22:03:13.572Z,18.43
2018-08-06T22:05:43.604Z,18.60
2018-08-06T22:08:13.480Z,19.27
2018-08-06T22:10:43.521Z,19.23
2018-08-06T22:13:13.355Z,19.20
2018-08-06T22:15:43.400Z,19.40
2018-08-06T22:18:13.804Z,19.07
2018-08-06T22:20:43.560Z,18.73
2018-08-06T22:23:13.639Z,19.07
2018-08-06T22:25:43.640Z,18.67
2018-08-06T22:28:15.042Z,19.57
2018-08-06T22:30:45.160Z,18.77
2018-08-06T22:33:15.284Z,19.47
2018-08-06T22:35:45.061Z,19.70
2018-08-06T22:38:15.020Z,18.43
2018-08-06T22:40:45.180Z,19.67
2018-08-06T22:43:14.961Z,18.70
2018-08-06T22:45:44.680Z,18.67
2018-08-06T22:48:14.440Z,19.13
2018-08-06T22:50:44.259Z,19.60
2018-08-06T22:53:14.301Z,19.83
2018-08-06T22:55:54.919Z,19.47
2018-08-06T22:58:24.679Z,18.70
2018-08-06T23:00:54.449Z,18.70
2018-08-06T23:03:24.323Z,18.87
2018-08-06T23:05:55.043Z,19.00
2018-08-06T23:08:25.063Z,17.00
2018-08-06T23:10:54.863Z,18.77
2018-08-06T23:13:24.843Z,19.17
2018-08-06T23:15:54.883Z,19.53
2018-08-06T23:18:25.023Z,18.07
2018-08-06T23:20:55.045Z,18.07
2018-08-06T23:23:25.103Z,18.57
2018-08-06T23:25:54.985Z,19.07
2018-08-06T23:28:25.322Z,18.40
2018-08-06T23:30:55.146Z,18.93
2018-08-06T23:33:24.930Z,18.53
2018-08-06T23:35:56.182Z,18.40
2018-08-06T23:38:25.982Z,19.17
2018-08-06T23:40:56.041Z,19.10
2018-08-06T23:43:26.560Z,19.47
2018-08-06T23:45:56.722Z,18.43
2018-08-06T23:48:26.882Z,18.33
2018-08-06T23:50:56.941Z,19.37
2018-08-06T23:53:26.821Z,17.30
2018-08-06T23:55:56.741Z,18.77
2018-08-06T23:58:30.541Z,18.73
